sensor_id;sensor_type;location;lat;lon;timestamp;pressure;altitude;pressure_sealevel;temperature;humidity
73981;BME280;62348;51.412;5.436;2023-11-22T00:01:49;102567.06;;;4.42;100.00
73981;BME280;62348;51.412;5.436;2023-11-22T00:04:15;102566.25;;;4.41;100.00
73981;BME280;62348;51.412;5.436;2023-11-22T00:06:40;102566.78;;;4.37;100.00
73981;BME280;62348;51.412;5.436;2023-11-22T00:09:06;102558.94;;;4.35;100.00
73981;BME280;62348;51.412;5.436;2023-11-22T00:11:32;102556.97;;;4.29;100.00
73981;BME280;62348;51.412;5.436;2023-11-22T00:13:57;102541.06;;;4.27;100.00
73981;BME280;62348;51.412;5.436;2023-11-22T00:16:23;102545.59;;;4.27;100.00
73981;BME280;62348;51.412;5.436;2023-11-22T00:18:48;102542.06;;;4.26;100.00
73981;BME280;62348;51.412;5.436;2023-11-22T00:21:14;102546.41;;;4.27;100.00
73981;BME280;62348;51.412;5.436;2023-11-22T00:23:39;102546.75;;;4.24;100.00
73981;BME280;62348;51.412;5.436;2023-11-22T00:26:04;102542.72;;;4.28;100.00
73981;BME280;62348;51.412;5.436;2023-11-22T00:28:31;102547.91;;;4.30;100.00
73981;BME280;62348;51.412;5.436;2023-11-22T00:30:57;102543.19;;;4.32;100.00
73981;BME280;62348;51.412;5.436;2023-11-22T00:33:23;102552.44;;;4.29;100.00
73981;BME280;62348;51.412;5.436;2023-11-22T00:35:48;102557.78;;;4.29;100.00
73981;BME280;62348;51.412;5.436;2023-11-22T00:38:14;102565.00;;;4.29;100.00
73981;BME280;62348;51.412;5.436;2023-11-22T00:40:39;102560.63;;;4.28;100.00
73981;BME280;62348;51.412;5.436;2023-11-22T00:43:05;102565.34;;;4.26;100.00
73981;BME280;62348;51.412;5.436;2023-11-22T00:45:30;102578.91;;;4.24;100.00
73981;BME280;62348;51.412;5.436;2023-11-22T00:47:56;102575.56;;;4.22;100.00
73981;BME280;62348;51.412;5.436;2023-11-22T00:50:21;102585.28;;;4.23;100.00
73981;BME280;62348;51.412;5.436;2023-11-22T00:52:49;102575.94;;;4.19;100.00
73981;BME280;62348;51.412;5.436;2023-11-22T00:55:15;102577.94;;;4.17;100.00
73981;BME280;62348;51.412;5.436;2023-11-22T00:57:40;102583.28;;;4.17;100.00
73981;BME280;62348;51.412;5.436;2023-11-22T01:00:06;102593.16;;;4.17;100.00
73981;BME280;62348;51.412;5.436;2023-11-22T01:02:35;102592.50;;;4.15;100.00
73981;BME280;62348;51.412;5.436;2023-11-22T01:05:06;102588.34;;;4.12;100.00
73981;BME280;62348;51.412;5.436;2023-11-22T01:07:36;102591.03;;;4.12;100.00
73981;BME280;62348;51.412;5.436;2023-11-22T01:10:01;102594.69;;;4.11;100.00
73981;BME280;62348;51.412;5.436;2023-11-22T01:12:27;102609.28;;;4.08;100.00
73981;BME280;62348;51.412;5.436;2023-11-22T01:14:52;102606.94;;;4.05;100.00
73981;BME280;62348;51.412;5.436;2023-11-22T01:17:18;102608.78;;;4.05;100.00
73981;BME280;62348;51.412;5.436;2023-11-22T01:19:43;102614.31;;;4.03;100.00
73981;BME280;62348;51.412;5.436;2023-11-22T01:22:08;102613.50;;;4.03;100.00
73981;BME280;62348;51.412;5.436;2023-11-22T01:24:34;102611.81;;;4.02;100.00
73981;BME280;62348;51.412;5.436;2023-11-22T01:26:59;102619.66;;;4.03;100.00
73981;BME280;62348;51.412;5.436;2023-11-22T01:29:25;102631.06;;;3.97;100.00
73981;BME280;62348;51.412;5.436;2023-11-22T01:31:51;102624.03;;;3.96;100.00
73981;BME280;62348;51.412;5.436;2023-11-22T01:34:17;102624.22;;;3.95;100.00
73981;BME280;62348;51.412;5.436;2023-11-22T01:36:42;102625.41;;;3.92;100.00
73981;BME280;62348;51.412;5.436;2023-11-22T01:39:11;102632.94;;;3.88;100.00
73981;BME280;62348;51.412;5.436;2023-11-22T01:41:40;102650.00;;;3.87;100.00
73981;BME280;62348;51.412;5.436;2023-11-22T01:44:08;102653.84;;;3.85;100.00
73981;BME280;62348;51.412;5.436;2023-11-22T01:46:33;102654.88;;;3.84;100.00
73981;BME280;62348;51.412;5.436;2023-11-22T01:48:59;102652.84;;;3.86;100.00
73981;BME280;62348;51.412;5.436;2023-11-22T01:51:25;102664.38;;;3.86;100.00
73981;BME280;62348;51.412;5.436;2023-11-22T01:53:52;102677.44;;;3.81;100.00
73981;BME280;62348;51.412;5.436;2023-11-22T01:56:20;102672.09;;;3.81;100.00
73981;BME280;62348;51.412;5.436;2023-11-22T01:58:46;102675.78;;;3.80;100.00
73981;BME280;62348;51.412;5.436;2023-11-22T02:01:12;102674.13;;;3.71;100.00
73981;BME280;62348;51.412;5.436;2023-11-22T02:03:39;102674.63;;;3.75;100.00
73981;BME280;62348;51.412;5.436;2023-11-22T02:06:05;102663.41;;;3.71;100.00
73981;BME280;62348;51.412;5.436;2023-11-22T02:08:31;102670.78;;;3.69;100.00
73981;BME280;62348;51.412;5.436;2023-11-22T02:10:58;102658.59;;;3.66;100.00
73981;BME280;62348;51.412;5.436;2023-11-22T02:13:24;102656.25;;;3.63;100.00
73981;BME280;62348;51.412;5.436;2023-11-22T02:15:49;102658.59;;;3.58;100.00
73981;BME280;62348;51.412;5.436;2023-11-22T02:18:15;102650.56;;;3.58;100.00
73981;BME280;62348;51.412;5.436;2023-11-22T02:20:41;102635.69;;;3.56;100.00
73981;BME280;62348;51.412;5.436;2023-11-22T02:23:08;102629.69;;;3.54;100.00
73981;BME280;62348;51.412;5.436;2023-11-22T02:25:37;102635.38;;;3.50;100.00
73981;BME280;62348;51.412;5.436;2023-11-22T02:28:03;102649.75;;;3.49;100.00
73981;BME280;62348;51.412;5.436;2023-11-22T02:30:28;102652.75;;;3.46;100.00
73981;BME280;62348;51.412;5.436;2023-11-22T02:32:54;102658.94;;;3.47;100.00
73981;BME280;62348;51.412;5.436;2023-11-22T02:35:19;102662.63;;;3.46;100.00
73981;BME280;62348;51.412;5.436;2023-11-22T02:37:45;102666.81;;;3.40;100.00
73981;BME280;62348;51.412;5.436;2023-11-22T02:40:21;102679.53;;;3.38;100.00
73981;BME280;62348;51.412;5.436;2023-11-22T02:42:51;102673.50;;;3.36;100.00
73981;BME280;62348;51.412;5.436;2023-11-22T02:45:18;102673.66;;;3.35;100.00
73981;BME280;62348;51.412;5.436;2023-11-22T02:47:44;102671.47;;;3.30;100.00
73981;BME280;62348;51.412;5.436;2023-11-22T02:50:12;102667.00;;;3.30;100.00
73981;BME280;62348;51.412;5.436;2023-11-22T02:52:37;102664.81;;;3.26;100.00
73981;BME280;62348;51.412;5.436;2023-11-22T02:55:03;102672.00;;;3.25;100.00
73981;BME280;62348;51.412;5.436;2023-11-22T02:57:30;102664.31;;;3.22;100.00
73981;BME280;62348;51.412;5.436;2023-11-22T02:59:56;102663.63;;;3.20;100.00
73981;BME280;62348;51.412;5.436;2023-11-22T03:02:22;102660.97;;;3.20;100.00
73981;BME280;62348;51.412;5.436;2023-11-22T03:04:47;102656.78;;;3.18;100.00
73981;BME280;62348;51.412;5.436;2023-11-22T03:07:13;102649.97;;;3.15;100.00
73981;BME280;62348;51.412;5.436;2023-11-22T03:09:38;102655.47;;;3.13;100.00
73981;BME280;62348;51.412;5.436;2023-11-22T03:12:05;102658.13;;;3.13;100.00
73981;BME280;62348;51.412;5.436;2023-11-22T03:14:31;102652.13;;;3.11;100.00
73981;BME280;62348;51.412;5.436;2023-11-22T03:16:57;102654.94;;;3.10;100.00
73981;BME280;62348;51.412;5.436;2023-11-22T03:19:23;102653.28;;;3.09;100.00
73981;BME280;62348;51.412;5.436;2023-11-22T03:21:49;102660.47;;;3.08;100.00
73981;BME280;62348;51.412;5.436;2023-11-22T03:24:15;102661.66;;;3.06;100.00
73981;BME280;62348;51.412;5.436;2023-11-22T03:26:41;102660.47;;;3.00;100.00
73981;BME280;62348;51.412;5.436;2023-11-22T03:29:06;102656.78;;;3.01;100.00
73981;BME280;62348;51.412;5.436;2023-11-22T03:31:32;102661.63;;;2.98;100.00
73981;BME280;62348;51.412;5.436;2023-11-22T03:33:57;102665.16;;;2.98;100.00
73981;BME280;62348;51.412;5.436;2023-11-22T03:36:23;102675.16;;;2.96;100.00
73981;BME280;62348;51.412;5.436;2023-11-22T03:38:49;102676.00;;;2.97;100.00
73981;BME280;62348;51.412;5.436;2023-11-22T03:41:16;102682.50;;;2.94;100.00
73981;BME280;62348;51.412;5.436;2023-11-22T03:43:43;102680.00;;;2.92;100.00
73981;BME280;62348;51.412;5.436;2023-11-22T03:46:08;102689.16;;;2.90;100.00
73981;BME280;62348;51.412;5.436;2023-11-22T03:48:34;102698.34;;;2.87;100.00
73981;BME280;62348;51.412;5.436;2023-11-22T03:51:00;102701.03;;;2.87;100.00
73981;BME280;62348;51.412;5.436;2023-11-22T03:53:25;102711.34;;;2.82;100.00
73981;BME280;62348;51.412;5.436;2023-11-22T03:55:52;102720.22;;;2.83;100.00
73981;BME280;62348;51.412;5.436;2023-11-22T03:58:17;102734.06;;;2.78;100.00
73981;BME280;62348;51.412;5.436;2023-11-22T04:00:43;102740.56;;;2.76;100.00
73981;BME280;62348;51.412;5.436;2023-11-22T04:03:08;102735.53;;;2.72;100.00
73981;BME280;62348;51.412;5.436;2023-11-22T04:05:34;102744.56;;;2.71;100.00
73981;BME280;62348;51.412;5.436;2023-11-22T04:07:59;102748.22;;;2.70;100.00
73981;BME280;62348;51.412;5.436;2023-11-22T04:10:25;102758.41;;;2.67;100.00
73981;BME280;62348;51.412;5.436;2023-11-22T04:12:50;102754.38;;;2.63;100.00
73981;BME280;62348;51.412;5.436;2023-11-22T04:15:16;102767.88;;;2.61;100.00
73981;BME280;62348;51.412;5.436;2023-11-22T04:17:41;102764.53;;;2.59;100.00
73981;BME280;62348;51.412;5.436;2023-11-22T04:20:07;102761.19;;;2.57;100.00
73981;BME280;62348;51.412;5.436;2023-11-22T04:22:40;102760.53;;;2.55;100.00
73981;BME280;62348;51.412;5.436;2023-11-22T04:25:06;102767.72;;;2.54;100.00
73981;BME280;62348;51.412;5.436;2023-11-22T04:27:33;102767.50;;;2.48;100.00
73981;BME280;62348;51.412;5.436;2023-11-22T04:29:59;102768.19;;;2.50;100.00
73981;BME280;62348;51.412;5.436;2023-11-22T04:32:24;102763.31;;;2.45;100.00
73981;BME280;62348;51.412;5.436;2023-11-22T04:34:50;102773.19;;;2.45;100.00
73981;BME280;62348;51.412;5.436;2023-11-22T04:37:15;102773.63;;;2.40;100.00
73981;BME280;62348;51.412;5.436;2023-11-22T04:39:40;102769.31;;;2.39;100.00
73981;BME280;62348;51.412;5.436;2023-11-22T04:42:06;102783.78;;;2.37;100.00
73981;BME280;62348;51.412;5.436;2023-11-22T04:44:31;102787.47;;;2.36;100.00
73981;BME280;62348;51.412;5.436;2023-11-22T04:46:59;102778.94;;;2.32;100.00
73981;BME280;62348;51.412;5.436;2023-11-22T04:49:26;102767.41;;;2.31;100.00
73981;BME280;62348;51.412;5.436;2023-11-22T04:51:51;102773.91;;;2.29;100.00
73981;BME280;62348;51.412;5.436;2023-11-22T04:54:17;102778.28;;;2.30;100.00
73981;BME280;62348;51.412;5.436;2023-11-22T04:56:42;102782.94;;;2.28;100.00
73981;BME280;62348;51.412;5.436;2023-11-22T04:59:08;102786.06;;;2.23;100.00
73981;BME280;62348;51.412;5.436;2023-11-22T05:01:34;102778.88;;;2.24;100.00
73981;BME280;62348;51.412;5.436;2023-11-22T05:03:59;102792.72;;;2.19;100.00
73981;BME280;62348;51.412;5.436;2023-11-22T05:06:25;102795.53;;;2.18;100.00
73981;BME280;62348;51.412;5.436;2023-11-22T05:08:51;102798.19;;;2.18;100.00
73981;BME280;62348;51.412;5.436;2023-11-22T05:11:17;102800.88;;;2.18;100.00
73981;BME280;62348;51.412;5.436;2023-11-22T05:13:42;102804.56;;;2.17;100.00
73981;BME280;62348;51.412;5.436;2023-11-22T05:16:08;102803.69;;;2.16;100.00
73981;BME280;62348;51.412;5.436;2023-11-22T05:18:34;102816.88;;;2.18;100.00
73981;BME280;62348;51.412;5.436;2023-11-22T05:21:01;102809.69;;;2.18;100.00
73981;BME280;62348;51.412;5.436;2023-11-22T05:23:28;102800.88;;;2.18;100.00
73981;BME280;62348;51.412;5.436;2023-11-22T05:25:53;102798.56;;;2.23;100.00
73981;BME280;62348;51.412;5.436;2023-11-22T05:28:19;102803.44;;;2.27;100.00
73981;BME280;62348;51.412;5.436;2023-11-22T05:30:44;102796.78;;;2.31;100.00
73981;BME280;62348;51.412;5.436;2023-11-22T05:33:10;102800.81;;;2.36;100.00
73981;BME280;62348;51.412;5.436;2023-11-22T05:35:35;102798.69;;;2.39;100.00
73981;BME280;62348;51.412;5.436;2023-11-22T05:38:00;102789.50;;;2.42;100.00
73981;BME280;62348;51.412;5.436;2023-11-22T05:40:27;102785.53;;;2.46;100.00
73981;BME280;62348;51.412;5.436;2023-11-22T05:42:52;102780.84;;;2.48;100.00
73981;BME280;62348;51.412;5.436;2023-11-22T05:45:18;102777.19;;;2.49;100.00
73981;BME280;62348;51.412;5.436;2023-11-22T05:47:43;102792.38;;;2.48;100.00
73981;BME280;62348;51.412;5.436;2023-11-22T05:50:09;102793.53;;;2.46;100.00
73981;BME280;62348;51.412;5.436;2023-11-22T05:52:34;102797.88;;;2.47;100.00
73981;BME280;62348;51.412;5.436;2023-11-22T05:55:00;102808.06;;;2.51;100.00
73981;BME280;62348;51.412;5.436;2023-11-22T05:57:29;102813.56;;;2.50;100.00
73981;BME280;62348;51.412;5.436;2023-11-22T05:59:55;102815.25;;;2.51;100.00
73981;BME280;62348;51.412;5.436;2023-11-22T06:02:21;102837.44;;;2.51;100.00
73981;BME280;62348;51.412;5.436;2023-11-22T06:04:46;102842.94;;;2.50;100.00
73981;BME280;62348;51.412;5.436;2023-11-22T06:07:12;102841.81;;;2.52;100.00
73981;BME280;62348;51.412;5.436;2023-11-22T06:09:37;102835.94;;;2.49;100.00
73981;BME280;62348;51.412;5.436;2023-11-22T06:12:03;102834.09;;;2.49;100.00
73981;BME280;62348;51.412;5.436;2023-11-22T06:14:28;102823.44;;;2.49;100.00
73981;BME280;62348;51.412;5.436;2023-11-22T06:16:54;102823.28;;;2.51;100.00
73981;BME280;62348;51.412;5.436;2023-11-22T06:19:19;102830.44;;;2.50;100.00
73981;BME280;62348;51.412;5.436;2023-11-22T06:21:44;102831.28;;;2.51;100.00
73981;BME280;62348;51.412;5.436;2023-11-22T06:24:11;102840.13;;;2.51;100.00
73981;BME280;62348;51.412;5.436;2023-11-22T06:26:42;102841.28;;;2.49;100.00
73981;BME280;62348;51.412;5.436;2023-11-22T06:29:07;102843.59;;;2.44;100.00
73981;BME280;62348;51.412;5.436;2023-11-22T06:31:33;102848.78;;;2.45;100.00
73981;BME280;62348;51.412;5.436;2023-11-22T06:33:59;102854.13;;;2.45;100.00
73981;BME280;62348;51.412;5.436;2023-11-22T06:36:26;102852.44;;;2.44;100.00
73981;BME280;62348;51.412;5.436;2023-11-22T06:38:53;102855.25;;;2.43;100.00
73981;BME280;62348;51.412;5.436;2023-11-22T06:41:19;102851.06;;;2.40;100.00
73981;BME280;62348;51.412;5.436;2023-11-22T06:43:47;102859.75;;;2.42;100.00
73981;BME280;62348;51.412;5.436;2023-11-22T06:46:12;102853.59;;;2.42;100.00
73981;BME280;62348;51.412;5.436;2023-11-22T06:48:38;102865.25;;;2.41;100.00
73981;BME280;62348;51.412;5.436;2023-11-22T06:51:03;102872.13;;;2.43;100.00
73981;BME280;62348;51.412;5.436;2023-11-22T06:53:28;102880.97;;;2.44;100.00
73981;BME280;62348;51.412;5.436;2023-11-22T06:55:54;102884.63;;;2.43;100.00
73981;BME280;62348;51.412;5.436;2023-11-22T06:58:19;102879.81;;;2.46;100.00
73981;BME280;62348;51.412;5.436;2023-11-22T07:00:45;102871.97;;;2.45;100.00
73981;BME280;62348;51.412;5.436;2023-11-22T07:03:10;102859.59;;;2.44;100.00
73981;BME280;62348;51.412;5.436;2023-11-22T07:05:36;102842.06;;;2.41;100.00
73981;BME280;62348;51.412;5.436;2023-11-22T07:08:02;102846.41;;;2.42;100.00
73981;BME280;62348;51.412;5.436;2023-11-22T07:10:29;102840.91;;;2.44;100.00
73981;BME280;62348;51.412;5.436;2023-11-22T07:12:59;102829.41;;;2.43;100.00
73981;BME280;62348;51.412;5.436;2023-11-22T07:15:26;102830.91;;;2.46;100.00
73981;BME280;62348;51.412;5.436;2023-11-22T07:17:52;102828.91;;;2.48;100.00
73981;BME280;62348;51.412;5.436;2023-11-22T07:20:17;102816.72;;;2.45;100.00
73981;BME280;62348;51.412;5.436;2023-11-22T07:22:43;102835.78;;;2.50;100.00
73981;BME280;62348;51.412;5.436;2023-11-22T07:25:09;102834.63;;;2.53;100.00
73981;BME280;62348;51.412;5.436;2023-11-22T07:27:44;102835.16;;;2.57;100.00
73981;BME280;62348;51.412;5.436;2023-11-22T07:30:11;102843.00;;;2.58;100.00
73981;BME280;62348;51.412;5.436;2023-11-22T07:32:38;102850.69;;;2.61;100.00
73981;BME280;62348;51.412;5.436;2023-11-22T07:35:05;102849.72;;;2.62;100.00
73981;BME280;62348;51.412;5.436;2023-11-22T07:37:33;102854.03;;;2.63;100.00
73981;BME280;62348;51.412;5.436;2023-11-22T07:39:59;102853.06;;;2.64;100.00
73981;BME280;62348;51.412;5.436;2023-11-22T07:42:26;102845.56;;;2.68;100.00
73981;BME280;62348;51.412;5.436;2023-11-22T07:44:51;102856.09;;;2.69;100.00
73981;BME280;62348;51.412;5.436;2023-11-22T07:47:21;102858.44;;;2.72;100.00
73981;BME280;62348;51.412;5.436;2023-11-22T07:49:48;102858.94;;;2.76;100.00
73981;BME280;62348;51.412;5.436;2023-11-22T07:52:14;102863.31;;;2.77;100.00
73981;BME280;62348;51.412;5.436;2023-11-22T07:54:39;102855.13;;;2.79;100.00
73981;BME280;62348;51.412;5.436;2023-11-22T07:57:05;102853.31;;;2.79;100.00
73981;BME280;62348;51.412;5.436;2023-11-22T07:59:32;102858.47;;;2.81;100.00
73981;BME280;62348;51.412;5.436;2023-11-22T08:01:57;102864.31;;;2.84;100.00
73981;BME280;62348;51.412;5.436;2023-11-22T08:04:23;102873.88;;;2.87;100.00
73981;BME280;62348;51.412;5.436;2023-11-22T08:06:48;102878.88;;;2.90;100.00
73981;BME280;62348;51.412;5.436;2023-11-22T08:09:14;102883.25;;;2.91;100.00
73981;BME280;62348;51.412;5.436;2023-11-22T08:11:42;102890.94;;;2.94;100.00
73981;BME280;62348;51.412;5.436;2023-11-22T08:14:07;102900.47;;;2.97;100.00
73981;BME280;62348;51.412;5.436;2023-11-22T08:16:33;102901.97;;;2.99;100.00
73981;BME280;62348;51.412;5.436;2023-11-22T08:19:03;102911.69;;;3.00;100.00
73981;BME280;62348;51.412;5.436;2023-11-22T08:21:30;102907.16;;;3.01;100.00
73981;BME280;62348;51.412;5.436;2023-11-22T08:23:56;102924.56;;;3.05;100.00
73981;BME280;62348;51.412;5.436;2023-11-22T08:26:21;102931.59;;;3.06;100.00
73981;BME280;62348;51.412;5.436;2023-11-22T08:28:47;102927.91;;;3.07;100.00
73981;BME280;62348;51.412;5.436;2023-11-22T08:31:12;102925.59;;;3.12;100.00
73981;BME280;62348;51.412;5.436;2023-11-22T08:33:38;102917.59;;;3.12;100.00
73981;BME280;62348;51.412;5.436;2023-11-22T08:36:08;102922.63;;;3.15;100.00
73981;BME280;62348;51.412;5.436;2023-11-22T08:38:37;102922.28;;;3.18;100.00
73981;BME280;62348;51.412;5.436;2023-11-22T08:41:06;102918.28;;;3.22;100.00
73981;BME280;62348;51.412;5.436;2023-11-22T08:43:33;102910.94;;;3.24;100.00
73981;BME280;62348;51.412;5.436;2023-11-22T08:45:59;102899.25;;;3.25;100.00
73981;BME280;62348;51.412;5.436;2023-11-22T08:48:25;102903.63;;;3.26;100.00
73981;BME280;62348;51.412;5.436;2023-11-22T08:50:51;102917.81;;;3.27;100.00
73981;BME280;62348;51.412;5.436;2023-11-22T08:53:19;102919.47;;;3.28;100.00
73981;BME280;62348;51.412;5.436;2023-11-22T08:55:45;102926.34;;;3.30;100.00
73981;BME280;62348;51.412;5.436;2023-11-22T08:58:10;102926.00;;;3.33;100.00
73981;BME280;62348;51.412;5.436;2023-11-22T09:00:36;102930.03;;;3.38;100.00
73981;BME280;62348;51.412;5.436;2023-11-22T09:03:02;102935.06;;;3.41;100.00
73981;BME280;62348;51.412;5.436;2023-11-22T09:05:28;102934.91;;;3.42;100.00
73981;BME280;62348;51.412;5.436;2023-11-22T09:07:54;102931.06;;;3.45;100.00
73981;BME280;62348;51.412;5.436;2023-11-22T09:10:21;102929.75;;;3.49;100.00
73981;BME280;62348;51.412;5.436;2023-11-22T09:12:47;102937.97;;;3.56;100.00
73981;BME280;62348;51.412;5.436;2023-11-22T09:15:13;102940.31;;;3.59;100.00
73981;BME280;62348;51.412;5.436;2023-11-22T09:17:42;102938.31;;;3.61;100.00
73981;BME280;62348;51.412;5.436;2023-11-22T09:20:17;102940.50;;;3.65;100.00
73981;BME280;62348;51.412;5.436;2023-11-22T09:22:44;102937.97;;;3.64;100.00
73981;BME280;62348;51.412;5.436;2023-11-22T09:25:25;102939.66;;;3.65;100.00
73981;BME280;62348;51.412;5.436;2023-11-22T09:27:54;102947.19;;;3.69;100.00
73981;BME280;62348;51.412;5.436;2023-11-22T09:30:27;102949.56;;;3.72;100.00
73981;BME280;62348;51.412;5.436;2023-11-22T09:33:09;102948.38;;;3.75;100.00
73981;BME280;62348;51.412;5.436;2023-11-22T09:35:36;102944.72;;;3.76;100.00
73981;BME280;62348;51.412;5.436;2023-11-22T09:38:03;102948.06;;;3.78;100.00
73981;BME280;62348;51.412;5.436;2023-11-22T09:40:29;102952.06;;;3.82;100.00
73981;BME280;62348;51.412;5.436;2023-11-22T09:42:58;102948.91;;;3.87;100.00
73981;BME280;62348;51.412;5.436;2023-11-22T09:45:24;102949.59;;;3.89;100.00
73981;BME280;62348;51.412;5.436;2023-11-22T09:47:50;102951.75;;;3.94;100.00
73981;BME280;62348;51.412;5.436;2023-11-22T09:50:33;102957.13;;;3.94;100.00
73981;BME280;62348;51.412;5.436;2023-11-22T09:53:02;102960.47;;;3.96;100.00
73981;BME280;62348;51.412;5.436;2023-11-22T09:55:31;102967.00;;;4.01;100.00
73981;BME280;62348;51.412;5.436;2023-11-22T09:57:58;102954.28;;;4.03;100.00
73981;BME280;62348;51.412;5.436;2023-11-22T10:00:26;102949.75;;;4.04;100.00
73981;BME280;62348;51.412;5.436;2023-11-22T10:02:53;102952.13;;;4.07;100.00
73981;BME280;62348;51.412;5.436;2023-11-22T10:05:19;102946.91;;;4.05;100.00
73981;BME280;62348;51.412;5.436;2023-11-22T10:07:46;102942.41;;;4.06;100.00
73981;BME280;62348;51.412;5.436;2023-11-22T10:10:14;102928.69;;;4.09;100.00
73981;BME280;62348;51.412;5.436;2023-11-22T10:12:42;102933.38;;;4.15;100.00
73981;BME280;62348;51.412;5.436;2023-11-22T10:15:15;102939.91;;;4.21;100.00
73981;BME280;62348;51.412;5.436;2023-11-22T10:17:47;102935.41;;;4.21;100.00
73981;BME280;62348;51.412;5.436;2023-11-22T10:20:18;102941.22;;;4.25;100.00
73981;BME280;62348;51.412;5.436;2023-11-22T10:22:44;102944.41;;;4.28;100.00
73981;BME280;62348;51.412;5.436;2023-11-22T10:25:16;102943.94;;;4.33;100.00
73981;BME280;62348;51.412;5.436;2023-11-22T10:27:47;102942.59;;;4.37;100.00
73981;BME280;62348;51.412;5.436;2023-11-22T10:30:13;102938.22;;;4.36;100.00
73981;BME280;62348;51.412;5.436;2023-11-22T10:32:41;102945.09;;;4.39;100.00
73981;BME280;62348;51.412;5.436;2023-11-22T10:35:07;102950.31;;;4.40;100.00
73981;BME280;62348;51.412;5.436;2023-11-22T10:37:33;102941.41;;;4.40;100.00
73981;BME280;62348;51.412;5.436;2023-11-22T10:39:59;102942.75;;;4.44;100.00
73981;BME280;62348;51.412;5.436;2023-11-22T10:42:25;102937.06;;;4.47;100.00
73981;BME280;62348;51.412;5.436;2023-11-22T10:44:55;102929.34;;;4.52;100.00
73981;BME280;62348;51.412;5.436;2023-11-22T10:47:22;102931.00;;;4.53;100.00
73981;BME280;62348;51.412;5.436;2023-11-22T10:49:49;102930.19;;;4.53;100.00
73981;BME280;62348;51.412;5.436;2023-11-22T10:52:18;102926.69;;;4.52;100.00
73981;BME280;62348;51.412;5.436;2023-11-22T10:55:03;102928.66;;;4.58;100.00
73981;BME280;62348;51.412;5.436;2023-11-22T10:57:32;102921.47;;;4.59;100.00
73981;BME280;62348;51.412;5.436;2023-11-22T11:00:00;102900.03;;;4.59;100.00
73981;BME280;62348;51.412;5.436;2023-11-22T11:02:32;102900.53;;;4.62;100.00
73981;BME280;62348;51.412;5.436;2023-11-22T11:05:11;102896.69;;;4.65;100.00
73981;BME280;62348;51.412;5.436;2023-11-22T11:07:54;102899.53;;;4.63;100.00
73981;BME280;62348;51.412;5.436;2023-11-22T11:10:22;102894.16;;;4.63;100.00
73981;BME280;62348;51.412;5.436;2023-11-22T11:12:47;102884.28;;;4.64;100.00
73981;BME280;62348;51.412;5.436;2023-11-22T11:15:14;102877.56;;;4.68;100.00
73981;BME280;62348;51.412;5.436;2023-11-22T11:17:43;102870.03;;;4.72;100.00
73981;BME280;62348;51.412;5.436;2023-11-22T11:20:10;102870.69;;;4.74;100.00
73981;BME280;62348;51.412;5.436;2023-11-22T11:22:39;102880.25;;;4.76;100.00
73981;BME280;62348;51.412;5.436;2023-11-22T11:25:04;102880.72;;;4.80;100.00
73981;BME280;62348;51.412;5.436;2023-11-22T11:27:34;102882.22;;;4.82;100.00
73981;BME280;62348;51.412;5.436;2023-11-22T11:30:22;102882.06;;;4.84;100.00
73981;BME280;62348;51.412;5.436;2023-11-22T11:32:50;102883.72;;;4.85;100.00
73981;BME280;62348;51.412;5.436;2023-11-22T11:35:17;102885.41;;;4.86;100.00
73981;BME280;62348;51.412;5.436;2023-11-22T11:37:46;102872.50;;;4.89;100.00
73981;BME280;62348;51.412;5.436;2023-11-22T11:40:33;102876.66;;;4.92;100.00
73981;BME280;62348;51.412;5.436;2023-11-22T11:42:59;102867.13;;;4.89;100.00
73981;BME280;62348;51.412;5.436;2023-11-22T11:45:24;102866.09;;;4.91;100.00
73981;BME280;62348;51.412;5.436;2023-11-22T11:47:50;102860.25;;;4.95;100.00
73981;BME280;62348;51.412;5.436;2023-11-22T11:50:16;102847.84;;;4.94;100.00
73981;BME280;62348;51.412;5.436;2023-11-22T11:52:41;102836.22;;;5.02;100.00
73981;BME280;62348;51.412;5.436;2023-11-22T11:55:07;102824.69;;;5.01;100.00
73981;BME280;62348;51.412;5.436;2023-11-22T11:57:32;102827.38;;;5.01;100.00
73981;BME280;62348;51.412;5.436;2023-11-22T11:59:58;102812.94;;;5.02;100.00
73981;BME280;62348;51.412;5.436;2023-11-22T12:02:24;102816.47;;;5.03;100.00
73981;BME280;62348;51.412;5.436;2023-11-22T12:04:50;102799.00;;;5.07;100.00
73981;BME280;62348;51.412;5.436;2023-11-22T12:07:15;102782.94;;;5.07;100.00
73981;BME280;62348;51.412;5.436;2023-11-22T12:09:40;102795.31;;;5.08;100.00
73981;BME280;62348;51.412;5.436;2023-11-22T12:12:06;102794.47;;;5.07;100.00
73981;BME280;62348;51.412;5.436;2023-11-22T12:14:32;102794.31;;;5.09;100.00
73981;BME280;62348;51.412;5.436;2023-11-22T12:16:58;102799.19;;;5.05;100.00
73981;BME280;62348;51.412;5.436;2023-11-22T12:19:27;102794.00;;;5.04;100.00
73981;BME280;62348;51.412;5.436;2023-11-22T12:21:53;102793.81;;;5.05;100.00
73981;BME280;62348;51.412;5.436;2023-11-22T13:29:24;102760.56;;;4.92;100.00
73981;BME280;62348;51.412;5.436;2023-11-22T14:31:36;102744.00;;;4.88;100.00
73981;BME280;62348;51.412;5.436;2023-11-22T14:34:02;102745.00;;;4.87;100.00
73981;BME280;62348;51.412;5.436;2023-11-22T14:36:30;102743.50;;;4.84;100.00
73981;BME280;62348;51.412;5.436;2023-11-22T14:38:55;102735.63;;;4.83;100.00
73981;BME280;62348;51.412;5.436;2023-11-22T14:41:22;102745.69;;;4.81;100.00
73981;BME280;62348;51.412;5.436;2023-11-22T14:43:48;102740.50;;;4.79;100.00
73981;BME280;62348;51.412;5.436;2023-11-22T14:46:13;102737.81;;;4.79;100.00
73981;BME280;62348;51.412;5.436;2023-11-22T14:48:38;102737.16;;;4.77;100.00
73981;BME280;62348;51.412;5.436;2023-11-22T14:51:04;102735.53;;;4.76;100.00
73981;BME280;62348;51.412;5.436;2023-11-22T14:53:30;102746.25;;;4.76;100.00